sensor_id;sensor_type;location;lat;lon;timestamp;temperature;humidity
46932;DHT22;32670;51.464;11.964;2023-02-01T00:02:24;21.20;53.90
46932;DHT22;32670;51.464;11.964;2023-02-01T00:04:49;21.20;54.00
46932;DHT22;32670;51.464;11.964;2023-02-01T00:07:15;21.10;54.00
46932;DHT22;32670;51.464;11.964;2023-02-01T00:09:40;21.10;54.10
46932;DHT22;32670;51.464;11.964;2023-02-01T00:12:06;21.20;54.00
46932;DHT22;32670;51.464;11.964;2023-02-01T00:14:31;21.20;54.00
46932;DHT22;32670;51.464;11.964;2023-02-01T00:17:06;21.20;54.00
46932;DHT22;32670;51.464;11.964;2023-02-01T00:19:33;21.20;53.90
46932;DHT22;32670;51.464;11.964;2023-02-01T00:21:58;21.20;54.10
46932;DHT22;32670;51.464;11.964;2023-02-01T00:24:24;21.20;54.10
46932;DHT22;32670;51.464;11.964;2023-02-01T00:26:49;21.10;54.10
46932;DHT22;32670;51.464;11.964;2023-02-01T00:29:17;21.20;54.20
46932;DHT22;32670;51.464;11.964;2023-02-01T00:31:43;21.10;54.20
46932;DHT22;32670;51.464;11.964;2023-02-01T00:34:12;21.20;54.20
46932;DHT22;32670;51.464;11.964;2023-02-01T00:36:38;21.20;54.50
46932;DHT22;32670;51.464;11.964;2023-02-01T00:39:04;21.20;54.60
46932;DHT22;32670;51.464;11.964;2023-02-01T00:41:29;21.20;54.60
46932;DHT22;32670;51.464;11.964;2023-02-01T00:43:55;21.20;55.10
46932;DHT22;32670;51.464;11.964;2023-02-01T00:46:20;21.20;54.70
46932;DHT22;32670;51.464;11.964;2023-02-01T00:48:47;21.20;54.60
46932;DHT22;32670;51.464;11.964;2023-02-01T00:51:15;21.30;54.50
46932;DHT22;32670;51.464;11.964;2023-02-01T00:53:41;21.30;54.50
46932;DHT22;32670;51.464;11.964;2023-02-01T00:56:08;21.30;54.50
46932;DHT22;32670;51.464;11.964;2023-02-01T00:58:34;21.30;54.70
46932;DHT22;32670;51.464;11.964;2023-02-01T01:01:12;21.30;54.70
46932;DHT22;32670;51.464;11.964;2023-02-01T01:03:40;21.30;54.80
46932;DHT22;32670;51.464;11.964;2023-02-01T01:06:09;21.30;54.80
46932;DHT22;32670;51.464;11.964;2023-02-01T01:08:35;21.30;54.70
46932;DHT22;32670;51.464;11.964;2023-02-01T01:11:05;21.30;54.70
46932;DHT22;32670;51.464;11.964;2023-02-01T01:13:31;21.40;54.80
46932;DHT22;32670;51.464;11.964;2023-02-01T01:15:59;21.40;54.80
46932;DHT22;32670;51.464;11.964;2023-02-01T01:18:26;21.40;54.90
46932;DHT22;32670;51.464;11.964;2023-02-01T01:20:52;21.40;55.40
46932;DHT22;32670;51.464;11.964;2023-02-01T01:23:17;21.40;54.90
46932;DHT22;32670;51.464;11.964;2023-02-01T01:25:43;21.40;55.10
46932;DHT22;32670;51.464;11.964;2023-02-01T01:28:08;21.40;55.10
46932;DHT22;32670;51.464;11.964;2023-02-01T01:30:35;21.30;55.00
46932;DHT22;32670;51.464;11.964;2023-02-01T01:33:00;21.40;55.30
46932;DHT22;32670;51.464;11.964;2023-02-01T01:35:29;21.40;55.30
46932;DHT22;32670;51.464;11.964;2023-02-01T01:37:54;21.40;55.30
46932;DHT22;32670;51.464;11.964;2023-02-01T01:40:20;21.40;55.50
46932;DHT22;32670;51.464;11.964;2023-02-01T01:42:45;21.40;55.70
46932;DHT22;32670;51.464;11.964;2023-02-01T01:45:21;21.40;55.70
46932;DHT22;32670;51.464;11.964;2023-02-01T01:47:54;21.40;55.80
46932;DHT22;32670;51.464;11.964;2023-02-01T01:50:24;21.40;56.00
46932;DHT22;32670;51.464;11.964;2023-02-01T01:52:54;21.40;55.80
46932;DHT22;32670;51.464;11.964;2023-02-01T01:55:22;21.40;56.00
46932;DHT22;32670;51.464;11.964;2023-02-01T01:57:57;21.40;56.00
46932;DHT22;32670;51.464;11.964;2023-02-01T02:00:24;21.40;56.00
46932;DHT22;32670;51.464;11.964;2023-02-01T02:02:54;21.40;56.00
46932;DHT22;32670;51.464;11.964;2023-02-01T02:05:22;21.40;56.00
46932;DHT22;32670;51.464;11.964;2023-02-01T02:07:50;21.40;56.10
46932;DHT22;32670;51.464;11.964;2023-02-01T02:10:16;21.40;56.10
46932;DHT22;32670;51.464;11.964;2023-02-01T02:12:44;21.40;56.10
46932;DHT22;32670;51.464;11.964;2023-02-01T02:15:13;21.40;56.20
46932;DHT22;32670;51.464;11.964;2023-02-01T02:17:54;21.40;56.30
46932;DHT22;32670;51.464;11.964;2023-02-01T02:21:02;21.50;56.60
46932;DHT22;32670;51.464;11.964;2023-02-01T02:23:43;21.40;56.70
46932;DHT22;32670;51.464;11.964;2023-02-01T02:26:34;21.40;56.60
46932;DHT22;32670;51.464;11.964;2023-02-01T02:29:18;21.40;56.30
46932;DHT22;32670;51.464;11.964;2023-02-01T02:35:02;21.50;56.70
46932;DHT22;32670;51.464;11.964;2023-02-01T02:40:18;21.50;56.70
46932;DHT22;32670;51.464;11.964;2023-02-01T02:45:45;21.50;56.50
46932;DHT22;32670;51.464;11.964;2023-02-01T02:48:41;21.50;56.60
46932;DHT22;32670;51.464;11.964;2023-02-01T02:51:15;21.50;56.60
46932;DHT22;32670;51.464;11.964;2023-02-01T02:54:17;21.50;56.60
46932;DHT22;32670;51.464;11.964;2023-02-01T02:57:04;21.50;56.50
46932;DHT22;32670;51.464;11.964;2023-02-01T02:59:50;21.50;56.60
46932;DHT22;32670;51.464;11.964;2023-02-01T03:02:35;21.50;56.70
46932;DHT22;32670;51.464;11.964;2023-02-01T03:05:20;21.50;56.50
46932;DHT22;32670;51.464;11.964;2023-02-01T03:10:55;21.50;56.80
46932;DHT22;32670;51.464;11.964;2023-02-01T03:16:16;21.50;56.70
46932;DHT22;32670;51.464;11.964;2023-02-01T03:18:50;21.50;56.70
46932;DHT22;32670;51.464;11.964;2023-02-01T03:21:23;21.50;56.80
46932;DHT22;32670;51.464;11.964;2023-02-01T03:23:51;21.50;56.90
46932;DHT22;32670;51.464;11.964;2023-02-01T03:26:19;21.50;56.70
46932;DHT22;32670;51.464;11.964;2023-02-01T03:28:52;21.50;56.90
46932;DHT22;32670;51.464;11.964;2023-02-01T03:31:20;21.50;56.80
46932;DHT22;32670;51.464;11.964;2023-02-01T03:33:46;21.50;56.80
46932;DHT22;32670;51.464;11.964;2023-02-01T03:36:29;21.50;56.90
46932;DHT22;32670;51.464;11.964;2023-02-01T03:39:17;21.50;56.80
46932;DHT22;32670;51.464;11.964;2023-02-01T03:41:58;21.50;57.00
46932;DHT22;32670;51.464;11.964;2023-02-01T03:44:38;21.50;57.10
46932;DHT22;32670;51.464;11.964;2023-02-01T03:47:10;21.50;57.00
46932;DHT22;32670;51.464;11.964;2023-02-01T03:49:55;21.50;56.80
46932;DHT22;32670;51.464;11.964;2023-02-01T03:52:26;21.50;57.00
46932;DHT22;32670;51.464;11.964;2023-02-01T03:54:54;21.50;56.90
46932;DHT22;32670;51.464;11.964;2023-02-01T03:57:26;21.50;57.10
46932;DHT22;32670;51.464;11.964;2023-02-01T03:59:52;21.50;57.00
46932;DHT22;32670;51.464;11.964;2023-02-01T04:02:18;21.50;57.30
46932;DHT22;32670;51.464;11.964;2023-02-01T04:04:43;21.50;57.20
46932;DHT22;32670;51.464;11.964;2023-02-01T04:07:09;21.50;57.20
46932;DHT22;32670;51.464;11.964;2023-02-01T04:09:34;21.50;57.30
46932;DHT22;32670;51.464;11.964;2023-02-01T04:12:00;21.50;57.30
46932;DHT22;32670;51.464;11.964;2023-02-01T04:14:25;21.50;57.50
46932;DHT22;32670;51.464;11.964;2023-02-01T04:16:51;21.50;57.10
46932;DHT22;32670;51.464;11.964;2023-02-01T04:19:16;21.50;57.20
46932;DHT22;32670;51.464;11.964;2023-02-01T04:21:42;21.50;57.40
46932;DHT22;32670;51.464;11.964;2023-02-01T04:24:07;21.50;57.30
46932;DHT22;32670;51.464;11.964;2023-02-01T04:26:33;21.50;57.30
46932;DHT22;32670;51.464;11.964;2023-02-01T04:28:59;21.50;57.10
46932;DHT22;32670;51.464;11.964;2023-02-01T04:31:24;21.50;55.70
46932;DHT22;32670;51.464;11.964;2023-02-01T04:33:54;21.50;55.70
46932;DHT22;32670;51.464;11.964;2023-02-01T04:36:21;21.60;56.60
46932;DHT22;32670;51.464;11.964;2023-02-01T04:38:48;21.60;56.70
46932;DHT22;32670;51.464;11.964;2023-02-01T04:41:13;21.60;56.70
46932;DHT22;32670;51.464;11.964;2023-02-01T04:43:39;21.60;56.90
46932;DHT22;32670;51.464;11.964;2023-02-01T04:46:04;21.60;56.90
46932;DHT22;32670;51.464;11.964;2023-02-01T04:48:30;21.60;56.80
46932;DHT22;32670;51.464;11.964;2023-02-01T04:50:55;21.60;57.00
46932;DHT22;32670;51.464;11.964;2023-02-01T04:53:21;21.60;57.00
46932;DHT22;32670;51.464;11.964;2023-02-01T04:55:48;21.60;57.20
46932;DHT22;32670;51.464;11.964;2023-02-01T04:58:14;21.60;57.20
46932;DHT22;32670;51.464;11.964;2023-02-01T05:00:39;21.60;57.30
46932;DHT22;32670;51.464;11.964;2023-02-01T05:03:05;21.60;57.30
46932;DHT22;32670;51.464;11.964;2023-02-01T05:05:30;21.60;57.50
46932;DHT22;32670;51.464;11.964;2023-02-01T05:07:56;21.60;57.60
46932;DHT22;32670;51.464;11.964;2023-02-01T05:10:21;21.60;57.40
46932;DHT22;32670;51.464;11.964;2023-02-01T05:12:47;21.60;57.40
46932;DHT22;32670;51.464;11.964;2023-02-01T05:15:32;21.60;57.50
46932;DHT22;32670;51.464;11.964;2023-02-01T05:17:57;21.60;57.60
46932;DHT22;32670;51.464;11.964;2023-02-01T05:20:24;21.60;57.70
46932;DHT22;32670;51.464;11.964;2023-02-01T05:22:49;21.60;57.60
46932;DHT22;32670;51.464;11.964;2023-02-01T05:25:15;21.60;57.70
46932;DHT22;32670;51.464;11.964;2023-02-01T05:27:40;21.60;57.90
46932;DHT22;32670;51.464;11.964;2023-02-01T05:30:06;21.60;57.80
46932;DHT22;32670;51.464;11.964;2023-02-01T05:32:32;21.60;58.00
46932;DHT22;32670;51.464;11.964;2023-02-01T05:34:58;21.60;56.50
46932;DHT22;32670;51.464;11.964;2023-02-01T05:37:23;21.60;57.30
46932;DHT22;32670;51.464;11.964;2023-02-01T05:39:49;21.60;57.50
46932;DHT22;32670;51.464;11.964;2023-02-01T05:42:14;21.60;57.60
46932;DHT22;32670;51.464;11.964;2023-02-01T05:44:40;21.70;57.60
46932;DHT22;32670;51.464;11.964;2023-02-01T05:47:06;21.70;57.70
46932;DHT22;32670;51.464;11.964;2023-02-01T05:49:31;21.60;57.60
46932;DHT22;32670;51.464;11.964;2023-02-01T05:51:57;21.60;57.60
46932;DHT22;32670;51.464;11.964;2023-02-01T05:54:22;21.70;57.60
46932;DHT22;32670;51.464;11.964;2023-02-01T05:56:48;21.70;57.70
46932;DHT22;32670;51.464;11.964;2023-02-01T05:59:13;21.70;57.70
46932;DHT22;32670;51.464;11.964;2023-02-01T06:01:38;21.60;57.90
46932;DHT22;32670;51.464;11.964;2023-02-01T06:04:04;21.60;57.80
46932;DHT22;32670;51.464;11.964;2023-02-01T06:06:29;21.70;57.90
46932;DHT22;32670;51.464;11.964;2023-02-01T06:08:55;21.70;57.90
46932;DHT22;32670;51.464;11.964;2023-02-01T06:11:20;21.60;57.90
46932;DHT22;32670;51.464;11.964;2023-02-01T06:13:46;21.60;58.00
46932;DHT22;32670;51.464;11.964;2023-02-01T06:16:11;21.60;57.90
46932;DHT22;32670;51.464;11.964;2023-02-01T06:18:37;21.60;58.10
46932;DHT22;32670;51.464;11.964;2023-02-01T06:21:03;21.60;58.10
46932;DHT22;32670;51.464;11.964;2023-02-01T06:23:29;21.70;58.20
46932;DHT22;32670;51.464;11.964;2023-02-01T06:26:03;21.70;58.40
46932;DHT22;32670;51.464;11.964;2023-02-01T06:28:30;21.70;58.20
46932;DHT22;32670;51.464;11.964;2023-02-01T06:30:55;21.70;56.40
46932;DHT22;32670;51.464;11.964;2023-02-01T06:33:25;21.70;57.50
46932;DHT22;32670;51.464;11.964;2023-02-01T06:35:58;21.70;57.60
46932;DHT22;32670;51.464;11.964;2023-02-01T06:38:24;21.70;57.70
46932;DHT22;32670;51.464;11.964;2023-02-01T06:40:54;21.70;57.70
46932;DHT22;32670;51.464;11.964;2023-02-01T06:43:23;21.70;57.80
46932;DHT22;32670;51.464;11.964;2023-02-01T06:45:49;21.70;57.80
46932;DHT22;32670;51.464;11.964;2023-02-01T06:48:15;21.70;58.20
46932;DHT22;32670;51.464;11.964;2023-02-01T06:50:40;21.70;57.00
46932;DHT22;32670;51.464;11.964;2023-02-01T06:53:06;21.70;57.00
46932;DHT22;32670;51.464;11.964;2023-02-01T06:55:31;21.70;57.00
46932;DHT22;32670;51.464;11.964;2023-02-01T06:57:57;21.70;56.60
46932;DHT22;32670;51.464;11.964;2023-02-01T07:00:23;21.50;45.50
46932;DHT22;32670;51.464;11.964;2023-02-01T07:02:49;21.10;42.40
46932;DHT22;32670;51.464;11.964;2023-02-01T07:05:15;20.70;41.20
46932;DHT22;32670;51.464;11.964;2023-02-01T07:07:40;20.50;39.80
46932;DHT22;32670;51.464;11.964;2023-02-01T07:10:06;20.20;39.50
46932;DHT22;32670;51.464;11.964;2023-02-01T07:12:32;20.00;38.70
46932;DHT22;32670;51.464;11.964;2023-02-01T07:14:57;19.70;37.70
46932;DHT22;32670;51.464;11.964;2023-02-01T07:17:23;19.60;38.80
46932;DHT22;32670;51.464;11.964;2023-02-01T07:19:49;19.50;37.90
46932;DHT22;32670;51.464;11.964;2023-02-01T07:22:17;19.40;37.70
46932;DHT22;32670;51.464;11.964;2023-02-01T07:24:42;19.30;37.10
46932;DHT22;32670;51.464;11.964;2023-02-01T07:27:08;19.10;37.10
46932;DHT22;32670;51.464;11.964;2023-02-01T07:29:34;19.00;37.40
46932;DHT22;32670;51.464;11.964;2023-02-01T07:31:59;18.90;37.80
46932;DHT22;32670;51.464;11.964;2023-02-01T07:34:25;18.90;37.90
46932;DHT22;32670;51.464;11.964;2023-02-01T07:36:51;18.80;37.70
46932;DHT22;32670;51.464;11.964;2023-02-01T07:39:16;18.80;37.50
46932;DHT22;32670;51.464;11.964;2023-02-01T07:41:42;18.80;38.30
46932;DHT22;32670;51.464;11.964;2023-02-01T07:44:07;18.70;37.80
46932;DHT22;32670;51.464;11.964;2023-02-01T07:46:32;18.70;38.00
46932;DHT22;32670;51.464;11.964;2023-02-01T07:48:58;18.60;37.50
46932;DHT22;32670;51.464;11.964;2023-02-01T07:51:23;18.60;38.00
46932;DHT22;32670;51.464;11.964;2023-02-01T07:53:49;18.50;38.00
46932;DHT22;32670;51.464;11.964;2023-02-01T07:56:19;18.50;38.50
46932;DHT22;32670;51.464;11.964;2023-02-01T07:58:53;18.40;38.40
46932;DHT22;32670;51.464;11.964;2023-02-01T08:01:24;18.50;40.40
46932;DHT22;32670;51.464;11.964;2023-02-01T08:03:55;18.80;41.70
46932;DHT22;32670;51.464;11.964;2023-02-01T08:06:22;19.00;42.40
46932;DHT22;32670;51.464;11.964;2023-02-01T08:08:48;19.20;42.30
46932;DHT22;32670;51.464;11.964;2023-02-01T08:11:14;19.30;42.40
46932;DHT22;32670;51.464;11.964;2023-02-01T08:13:40;19.40;42.50
46932;DHT22;32670;51.464;11.964;2023-02-01T08:16:10;19.50;42.70
46932;DHT22;32670;51.464;11.964;2023-02-01T08:18:39;19.60;42.80
46932;DHT22;32670;51.464;11.964;2023-02-01T08:21:06;19.70;42.80
46932;DHT22;32670;51.464;11.964;2023-02-01T08:23:33;19.80;43.70
46932;DHT22;32670;51.464;11.964;2023-02-01T08:28:35;19.80;43.50
46932;DHT22;32670;51.464;11.964;2023-02-01T08:31:07;19.90;43.50
46932;DHT22;32670;51.464;11.964;2023-02-01T08:33:33;20.00;43.70
46932;DHT22;32670;51.464;11.964;2023-02-01T08:36:01;20.00;43.80
46932;DHT22;32670;51.464;11.964;2023-02-01T08:38:27;20.00;43.90
46932;DHT22;32670;51.464;11.964;2023-02-01T08:40:55;20.00;44.10
46932;DHT22;32670;51.464;11.964;2023-02-01T08:43:20;20.00;44.40
46932;DHT22;32670;51.464;11.964;2023-02-01T08:45:46;20.10;44.30
46932;DHT22;32670;51.464;11.964;2023-02-01T08:48:11;20.10;44.50
46932;DHT22;32670;51.464;11.964;2023-02-01T08:50:37;20.10;44.50
46932;DHT22;32670;51.464;11.964;2023-02-01T08:53:02;20.10;44.50
46932;DHT22;32670;51.464;11.964;2023-02-01T08:55:28;20.10;44.70
46932;DHT22;32670;51.464;11.964;2023-02-01T08:57:53;20.10;45.10
46932;DHT22;32670;51.464;11.964;2023-02-01T09:00:19;20.20;45.00
46932;DHT22;32670;51.464;11.964;2023-02-01T09:02:45;20.20;45.00
46932;DHT22;32670;51.464;11.964;2023-02-01T09:05:10;20.20;45.30
46932;DHT22;32670;51.464;11.964;2023-02-01T09:07:37;20.20;45.20
46932;DHT22;32670;51.464;11.964;2023-02-01T09:10:03;20.20;45.20
46932;DHT22;32670;51.464;11.964;2023-02-01T09:12:30;20.20;45.30
46932;DHT22;32670;51.464;11.964;2023-02-01T09:14:57;20.30;45.30
46932;DHT22;32670;51.464;11.964;2023-02-01T09:17:27;20.30;45.40
46932;DHT22;32670;51.464;11.964;2023-02-01T09:19:53;20.30;45.40
46932;DHT22;32670;51.464;11.964;2023-02-01T09:22:18;20.30;45.50
46932;DHT22;32670;51.464;11.964;2023-02-01T09:24:44;20.20;45.40
46932;DHT22;32670;51.464;11.964;2023-02-01T09:27:09;20.30;45.50
46932;DHT22;32670;51.464;11.964;2023-02-01T09:29:35;20.30;45.50
46932;DHT22;32670;51.464;11.964;2023-02-01T09:32:00;20.30;45.50
46932;DHT22;32670;51.464;11.964;2023-02-01T09:34:26;20.30;45.50
46932;DHT22;32670;51.464;11.964;2023-02-01T09:36:51;20.30;45.90
46932;DHT22;32670;51.464;11.964;2023-02-01T09:39:17;20.30;45.80
46932;DHT22;32670;51.464;11.964;2023-02-01T09:41:59;20.40;45.70
46932;DHT22;32670;51.464;11.964;2023-02-01T09:47:20;20.40;45.60
46932;DHT22;32670;51.464;11.964;2023-02-01T09:52:33;20.40;45.70
46932;DHT22;32670;51.464;11.964;2023-02-01T09:55:05;20.40;45.70
46932;DHT22;32670;51.464;11.964;2023-02-01T09:57:41;20.30;45.70
46932;DHT22;32670;51.464;11.964;2023-02-01T10:00:22;20.40;45.70
46932;DHT22;32670;51.464;11.964;2023-02-01T10:02:49;20.40;45.80
46932;DHT22;32670;51.464;11.964;2023-02-01T10:05:20;20.40;45.80
46932;DHT22;32670;51.464;11.964;2023-02-01T10:08:04;20.30;45.80
46932;DHT22;32670;51.464;11.964;2023-02-01T10:10:47;20.40;45.80
46932;DHT22;32670;51.464;11.964;2023-02-01T10:13:23;20.40;46.10
46932;DHT22;32670;51.464;11.964;2023-02-01T10:16:04;20.40;46.20
46932;DHT22;32670;51.464;11.964;2023-02-01T10:18:59;20.40;46.10
46932;DHT22;32670;51.464;11.964;2023-02-01T10:21:46;20.40;46.00
46932;DHT22;32670;51.464;11.964;2023-02-01T10:24:58;20.40;46.00
46932;DHT22;32670;51.464;11.964;2023-02-01T10:27:29;20.40;46.00
46932;DHT22;32670;51.464;11.964;2023-02-01T10:30:00;20.40;45.90
46932;DHT22;32670;51.464;11.964;2023-02-01T10:32:33;20.40;46.00
46932;DHT22;32670;51.464;11.964;2023-02-01T10:35:05;20.40;46.00
46932;DHT22;32670;51.464;11.964;2023-02-01T10:37:34;20.40;46.00
46932;DHT22;32670;51.464;11.964;2023-02-01T10:40:15;20.40;46.00
46932;DHT22;32670;51.464;11.964;2023-02-01T10:42:42;20.40;45.90
46932;DHT22;32670;51.464;11.964;2023-02-01T10:45:14;20.40;45.90
46932;DHT22;32670;51.464;11.964;2023-02-01T10:47:41;20.40;46.00
46932;DHT22;32670;51.464;11.964;2023-02-01T10:53:03;20.40;46.00
46932;DHT22;32670;51.464;11.964;2023-02-01T10:55:40;20.50;46.00
46932;DHT22;32670;51.464;11.964;2023-02-01T10:58:14;20.40;46.00
46932;DHT22;32670;51.464;11.964;2023-02-01T11:03:33;20.40;46.00
46932;DHT22;32670;51.464;11.964;2023-02-01T11:06:00;20.50;46.00
46932;DHT22;32670;51.464;11.964;2023-02-01T11:08:26;20.50;46.00
46932;DHT22;32670;51.464;11.964;2023-02-01T11:11:01;20.40;46.10
46932;DHT22;32670;51.464;11.964;2023-02-01T11:13:32;20.50;46.80
46932;DHT22;32670;51.464;11.964;2023-02-01T11:16:02;20.50;46.80
46932;DHT22;32670;51.464;11.964;2023-02-01T11:18:29;20.50;47.10
46932;DHT22;32670;51.464;11.964;2023-02-01T11:20:56;20.50;47.00
46932;DHT22;32670;51.464;11.964;2023-02-01T11:23:24;20.50;46.70
46932;DHT22;32670;51.464;11.964;2023-02-01T11:25:57;20.50;46.60
46932;DHT22;32670;51.464;11.964;2023-02-01T11:28:26;20.50;46.50
46932;DHT22;32670;51.464;11.964;2023-02-01T11:30:55;20.50;46.50
46932;DHT22;32670;51.464;11.964;2023-02-01T11:33:26;20.50;46.50
46932;DHT22;32670;51.464;11.964;2023-02-01T11:35:55;20.50;46.50
46932;DHT22;32670;51.464;11.964;2023-02-01T11:38:30;20.50;46.50
46932;DHT22;32670;51.464;11.964;2023-02-01T11:41:13;20.50;46.50
46932;DHT22;32670;51.464;11.964;2023-02-01T11:43:55;20.50;46.40
46932;DHT22;32670;51.464;11.964;2023-02-01T11:46:24;20.50;46.40
46932;DHT22;32670;51.464;11.964;2023-02-01T11:48:53;20.50;46.40
46932;DHT22;32670;51.464;11.964;2023-02-01T11:51:44;20.50;46.40
46932;DHT22;32670;51.464;11.964;2023-02-01T12:00:13;20.50;46.40
46932;DHT22;32670;51.464;11.964;2023-02-01T12:03:07;20.50;46.30
46932;DHT22;32670;51.464;11.964;2023-02-01T12:05:55;20.50;46.30
46932;DHT22;32670;51.464;11.964;2023-02-01T12:11:34;20.50;46.30
46932;DHT22;32670;51.464;11.964;2023-02-01T12:14:21;20.50;46.30
46932;DHT22;32670;51.464;11.964;2023-02-01T12:20:00;20.50;46.30
46932;DHT22;32670;51.464;11.964;2023-02-01T12:25:37;20.50;46.40
46932;DHT22;32670;51.464;11.964;2023-02-01T12:28:18;20.50;46.30
46932;DHT22;32670;51.464;11.964;2023-02-01T12:31:13;20.50;46.30
46932;DHT22;32670;51.464;11.964;2023-02-01T12:33:51;20.50;46.30
46932;DHT22;32670;51.464;11.964;2023-02-01T12:39:38;20.50;46.30
46932;DHT22;32670;51.464;11.964;2023-02-01T12:42:24;20.50;46.30
46932;DHT22;32670;51.464;11.964;2023-02-01T12:50:26;20.50;46.30
46932;DHT22;32670;51.464;11.964;2023-02-01T12:53:11;20.50;46.30
46932;DHT22;32670;51.464;11.964;2023-02-01T12:55:51;20.50;46.30
46932;DHT22;32670;51.464;11.964;2023-02-01T12:58:28;20.50;46.20
46932;DHT22;32670;51.464;11.964;2023-02-01T13:01:00;20.50;46.30
46932;DHT22;32670;51.464;11.964;2023-02-01T13:03:38;20.50;46.30
46932;DHT22;32670;51.464;11.964;2023-02-01T13:06:10;20.50;46.30
46932;DHT22;32670;51.464;11.964;2023-02-01T13:09:07;20.50;46.30
46932;DHT22;32670;51.464;11.964;2023-02-01T13:11:38;20.50;46.30
46932;DHT22;32670;51.464;11.964;2023-02-01T13:16:59;20.50;46.20
46932;DHT22;32670;51.464;11.964;2023-02-01T13:19:46;20.50;46.30
46932;DHT22;32670;51.464;11.964;2023-02-01T13:22:32;20.50;46.20
46932;DHT22;32670;51.464;11.964;2023-02-01T13:25:18;20.50;46.30
46932;DHT22;32670;51.464;11.964;2023-02-01T13:27:46;20.50;46.40
46932;DHT22;32670;51.464;11.964;2023-02-01T13:30:26;20.50;46.90
46932;DHT22;32670;51.464;11.964;2023-02-01T13:35:44;20.50;46.30
46932;DHT22;32670;51.464;11.964;2023-02-01T13:41:35;20.50;46.30
46932;DHT22;32670;51.464;11.964;2023-02-01T13:44:11;20.50;46.30
46932;DHT22;32670;51.464;11.964;2023-02-01T13:46:40;20.50;46.30
46932;DHT22;32670;51.464;11.964;2023-02-01T13:49:24;20.50;46.30
46932;DHT22;32670;51.464;11.964;2023-02-01T13:51:53;20.50;46.30
46932;DHT22;32670;51.464;11.964;2023-02-01T13:54:27;20.50;46.30
46932;DHT22;32670;51.464;11.964;2023-02-01T13:56:54;20.50;46.30
46932;DHT22;32670;51.464;11.964;2023-02-01T14:05:11;20.50;46.20
46932;DHT22;32670;51.464;11.964;2023-02-01T14:07:40;20.60;46.40
46932;DHT22;32670;51.464;11.964;2023-02-01T14:13:28;20.60;46.60
46932;DHT22;32670;51.464;11.964;2023-02-01T14:21:26;20.60;46.40
46932;DHT22;32670;51.464;11.964;2023-02-01T14:29:15;20.60;46.30
46932;DHT22;32670;51.464;11.964;2023-02-01T14:37:07;20.60;46.40
46932;DHT22;32670;51.464;11.964;2023-02-01T14:39:55;20.60;46.40
46932;DHT22;32670;51.464;11.964;2023-02-01T14:42:43;20.60;47.40
46932;DHT22;32670;51.464;11.964;2023-02-01T14:47:48;20.60;46.80
46932;DHT22;32670;51.464;11.964;2023-02-01T14:55:40;20.60;46.50
46932;DHT22;32670;51.464;11.964;2023-02-01T15:00:55;20.60;46.50
46932;DHT22;32670;51.464;11.964;2023-02-01T15:06:28;20.60;46.50
46932;DHT22;32670;51.464;11.964;2023-02-01T15:14:37;20.60;46.50
46932;DHT22;32670;51.464;11.964;2023-02-01T15:17:29;20.60;46.50
46932;DHT22;32670;51.464;11.964;2023-02-01T15:20:02;20.60;46.50
46932;DHT22;32670;51.464;11.964;2023-02-01T15:22:29;20.60;46.50
46932;DHT22;32670;51.464;11.964;2023-02-01T15:25:00;20.60;46.50
46932;DHT22;32670;51.464;11.964;2023-02-01T15:27:27;20.60;46.50
46932;DHT22;32670;51.464;11.964;2023-02-01T15:29:53;20.60;46.50
46932;DHT22;32670;51.464;11.964;2023-02-01T15:32:35;20.60;46.50
46932;DHT22;32670;51.464;11.964;2023-02-01T15:35:02;20.60;46.50
46932;DHT22;32670;51.464;11.964;2023-02-01T15:37:28;20.60;46.50
46932;DHT22;32670;51.464;11.964;2023-02-01T15:42:39;20.60;46.50
46932;DHT22;32670;51.464;11.964;2023-02-01T15:45:17;20.60;46.50
46932;DHT22;32670;51.464;11.964;2023-02-01T15:47:47;20.60;46.50
46932;DHT22;32670;51.464;11.964;2023-02-01T15:50:16;20.60;46.50
46932;DHT22;32670;51.464;11.964;2023-02-01T15:52:42;20.60;46.50
46932;DHT22;32670;51.464;11.964;2023-02-01T15:55:18;20.60;46.50
46932;DHT22;32670;51.464;11.964;2023-02-01T15:57:45;20.60;46.40
46932;DHT22;32670;51.464;11.964;2023-02-01T16:00:30;20.60;46.40
46932;DHT22;32670;51.464;11.964;2023-02-01T16:03:05;20.60;46.30
46932;DHT22;32670;51.464;11.964;2023-02-01T16:05:34;20.60;46.20
46932;DHT22;32670;51.464;11.964;2023-02-01T16:08:10;20.60;46.20
46932;DHT22;32670;51.464;11.964;2023-02-01T16:10:45;20.50;46.10
46932;DHT22;32670;51.464;11.964;2023-02-01T16:13:12;20.60;46.10
46932;DHT22;32670;51.464;11.964;2023-02-01T16:15:38;20.50;46.10
46932;DHT22;32670;51.464;11.964;2023-02-01T16:18:04;20.60;46.10
46932;DHT22;32670;51.464;11.964;2023-02-01T16:20:30;20.50;46.00
46932;DHT22;32670;51.464;11.964;2023-02-01T16:22:56;20.60;46.10
46932;DHT22;32670;51.464;11.964;2023-02-01T16:25:21;20.60;46.10
46932;DHT22;32670;51.464;11.964;2023-02-01T16:27:47;20.60;46.10
46932;DHT22;32670;51.464;11.964;2023-02-01T16:30:13;20.60;46.10
46932;DHT22;32670;51.464;11.964;2023-02-01T16:32:39;20.60;46.10
46932;DHT22;32670;51.464;11.964;2023-02-01T16:35:10;20.60;46.10
46932;DHT22;32670;51.464;11.964;2023-02-01T16:37:38;20.60;46.10
46932;DHT22;32670;51.464;11.964;2023-02-01T16:40:04;20.60;46.10
46932;DHT22;32670;51.464;11.964;2023-02-01T16:42:30;20.60;46.00
46932;DHT22;32670;51.464;11.964;2023-02-01T16:44:56;20.60;46.10
46932;DHT22;32670;51.464;11.964;2023-02-01T16:47:22;20.60;46.10
46932;DHT22;32670;51.464;11.964;2023-02-01T16:49:47;20.60;46.10
46932;DHT22;32670;51.464;11.964;2023-02-01T16:52:18;20.60;46.10
46932;DHT22;32670;51.464;11.964;2023-02-01T16:54:45;20.60;46.00
46932;DHT22;32670;51.464;11.964;2023-02-01T16:57:16;20.50;46.00
46932;DHT22;32670;51.464;11.964;2023-02-01T16:59:42;20.50;46.00
46932;DHT22;32670;51.464;11.964;2023-02-01T17:02:14;20.60;46.00
46932;DHT22;32670;51.464;11.964;2023-02-01T17:04:40;20.50;46.00
46932;DHT22;32670;51.464;11.964;2023-02-01T17:07:06;20.50;46.00
46932;DHT22;32670;51.464;11.964;2023-02-01T17:09:35;20.50;46.00
46932;DHT22;32670;51.464;11.964;2023-02-01T17:12:02;20.60;46.00
46932;DHT22;32670;51.464;11.964;2023-02-01T17:14:34;20.50;46.00
46932;DHT22;32670;51.464;11.964;2023-02-01T17:17:01;20.60;46.00
46932;DHT22;32670;51.464;11.964;2023-02-01T17:19:26;20.60;46.00
46932;DHT22;32670;51.464;11.964;2023-02-01T17:21:55;20.60;46.00
46932;DHT22;32670;51.464;11.964;2023-02-01T17:24:27;20.60;46.00